Time;durP1;ratioP1;P1;durP2;ratioP2;P2;SDS_P1;SDS_P2;PMS_P1;PMS_P2;Temp;Humidity;BMP_temperature;BMP_pressure;BME280_temperature;BME280_humidity;BME280_pressure;Samples;Min_cycle;Max_cycle;Signal;HPM_P1;HPM_P2
2021/03/24 00:09:09;;;;;;;39.10;22.67;;;7.50;99.90;;;;;;5084635;28;20573;-63
2021/03/24 00:11:36;;;;;;;42.53;22.47;;;7.60;99.90;;;;;;5086182;28;20239;-62
2021/03/24 00:14:04;;;;;;;42.30;22.60;;;7.60;99.90;;;;;;5068424;28;20267;-63
2021/03/24 00:16:30;;;;;;;41.07;22.83;;;7.50;99.90;;;;;;5064613;28;20229;-61
2021/03/24 00:18:57;;;;;;;41.83;24.07;;;7.30;99.90;;;;;;5079794;28;20198;-61
2021/03/24 00:21:23;;;;;;;40.27;22.30;;;7.40;99.90;;;;;;5086696;28;20276;-63
2021/03/24 00:23:49;;;;;;;45.60;23.63;;;7.40;99.90;;;;;;5084056;28;20193;-61
2021/03/24 00:26:16;;;;;;;38.70;23.37;;;7.50;99.90;;;;;;5086745;28;20279;-61
2021/03/24 00:28:42;;;;;;;44.83;26.33;;;7.50;99.90;;;;;;5085714;28;20665;-62
2021/03/24 00:31:09;;;;;;;44.80;24.13;;;7.60;99.90;;;;;;5071298;28;20198;-61
2021/03/24 00:33:35;;;;;;;46.47;25.30;;;7.60;99.90;;;;;;5082041;28;20215;-61
2021/03/24 00:36:02;;;;;;;41.67;25.17;;;7.60;99.90;;;;;;5086776;28;20197;-62
2021/03/24 00:38:28;;;;;;;45.30;26.27;;;7.60;99.90;;;;;;5083286;28;20621;-62
2021/03/24 00:40:58;;;;;;;44.57;25.10;;;7.50;99.90;;;;;;5087362;28;20215;-61
2021/03/24 00:43:25;;;;;;;41.53;25.83;;;7.40;99.90;;;;;;5082440;28;20272;-63
2021/03/24 00:45:52;;;;;;;52.90;27.13;;;7.40;99.90;;;;;;5084112;28;20202;-61
2021/03/24 00:48:22;;;;;;;43.57;24.47;;;7.50;99.90;;;;;;5084428;28;20273;-63
2021/03/24 00:50:49;;;;;;;45.53;26.13;;;7.50;99.90;;;;;;5083927;28;20248;-63
2021/03/24 00:53:17;;;;;;;49.93;25.87;;;7.60;99.90;;;;;;5085136;28;20939;-62
2021/03/24 00:55:45;;;;;;;48.70;25.43;;;7.50;99.90;;;;;;5088300;28;20700;-61
2021/03/24 00:58:11;;;;;;;43.30;25.47;;;7.60;99.90;;;;;;5085154;28;20200;-62
2021/03/24 01:00:39;;;;;;;43.77;24.53;;;7.70;99.90;;;;;;5064609;28;20296;-62
2021/03/24 01:03:06;;;;;;;43.90;26.53;;;7.60;99.90;;;;;;5080892;28;20639;-62
2021/03/24 01:05:33;;;;;;;46.63;25.90;;;7.60;99.90;;;;;;5085450;28;20199;-62
2021/03/24 01:08:00;;;;;;;46.87;27.40;;;7.60;99.90;;;;;;5067881;28;20698;-62
2021/03/24 01:10:31;;;;;;;52.87;26.17;;;7.60;99.90;;;;;;5084091;28;20203;-61
2021/03/24 01:12:57;;;;;;;44.17;26.57;;;7.60;99.90;;;;;;5083161;28;20203;-63
2021/03/24 01:15:25;;;;;;;46.90;25.20;;;7.50;99.90;;;;;;5085670;28;20241;-61
2021/03/24 01:17:52;;;;;;;47.63;26.57;;;7.50;99.90;;;;;;5084681;28;20263;-62
2021/03/24 01:20:25;;;;;;;45.30;23.90;;;7.40;99.90;;;;;;5083569;28;20205;-62
2021/03/24 01:22:56;;;;;;;42.57;23.83;;;7.30;99.90;;;;;;5084267;28;20246;-63
2021/03/24 01:25:24;;;;;;;46.93;24.47;;;7.30;99.90;;;;;;5093065;28;20226;-62
2021/03/24 01:27:51;;;;;;;39.07;23.50;;;7.30;99.90;;;;;;5090050;28;20665;-61
2021/03/24 01:30:19;;;;;;;40.50;22.53;;;7.30;99.90;;;;;;5088964;28;20199;-62
2021/03/24 01:32:47;;;;;;;33.93;20.43;;;7.30;99.90;;;;;;5088191;28;20645;-62
2021/03/24 01:35:15;;;;;;;46.00;24.07;;;7.30;99.90;;;;;;5090766;28;20239;-63
2021/03/24 01:37:43;;;;;;;46.90;25.03;;;7.30;99.90;;;;;;5089546;28;20299;-61
2021/03/24 01:40:18;;;;;;;56.47;28.37;;;7.30;99.90;;;;;;5087870;28;20200;-62
2021/03/24 01:42:44;;;;;;;44.17;24.90;;;7.40;99.90;;;;;;5085364;28;20286;-62
2021/03/24 01:45:16;;;;;;;52.20;26.60;;;7.30;99.90;;;;;;5089567;28;20258;-63
2021/03/24 01:47:44;;;;;;;41.33;24.70;;;7.20;99.90;;;;;;5088897;28;20229;-62
2021/03/24 01:50:23;;;;;;;48.97;24.53;;;7.30;99.90;;;;;;5086213;28;20550;-61
2021/03/24 01:52:49;;;;;;;51.43;26.43;;;7.20;99.90;;;;;;5084993;28;20228;-63
2021/03/24 01:55:17;;;;;;;44.70;25.67;;;7.20;99.90;;;;;;5085902;28;20283;-63
2021/03/24 01:57:45;;;;;;;48.90;26.67;;;7.20;99.90;;;;;;5090079;28;20272;-63
2021/03/24 02:00:20;;;;;;;42.00;25.53;;;7.30;99.90;;;;;;5089434;28;20194;-61
2021/03/24 02:02:46;;;;;;;44.80;24.87;;;7.40;99.90;;;;;;5081821;28;20260;-61
2021/03/24 02:05:13;;;;;;;43.27;24.97;;;7.30;99.90;;;;;;5087275;28;20290;-62
2021/03/24 02:07:44;;;;;;;44.10;23.47;;;7.20;99.90;;;;;;5070883;28;20281;-60
2021/03/24 02:10:24;;;;;;;46.87;25.37;;;7.00;99.90;;;;;;5085792;28;20623;-63
2021/03/24 02:13:09;;;;;;;47.83;24.83;;;6.90;99.90;;;;;;5084984;28;20259;-62
2021/03/24 02:15:40;;;;;;;44.87;23.93;;;7.00;99.90;;;;;;5056252;28;20703;-63
2021/03/24 02:18:11;;;;;;;43.70;23.47;;;6.60;99.90;;;;;;5087766;28;22205;-62
2021/03/24 02:20:46;;;;;;;46.43;24.47;;;6.30;99.90;;;;;;5085676;28;20202;-62
2021/03/24 02:23:48;;;;;;;47.57;26.23;;;6.20;99.90;;;;;;5087138;28;20217;-63
2021/03/24 02:26:40;;;;;;;48.10;23.83;;;6.10;99.90;;;;;;5085342;28;20245;-63
2021/03/24 02:29:09;;;;;;;42.53;24.00;;;6.00;99.90;;;;;;5088060;28;20244;-62
2021/03/24 02:31:37;;;;;;;43.93;24.80;;;6.10;99.90;;;;;;5086610;28;20268;-63
2021/03/24 02:34:09;;;;;;;47.20;24.07;;;6.00;99.90;;;;;;5086172;28;20547;-62
2021/03/24 02:36:38;;;;;;;41.67;24.17;;;6.10;99.90;;;;;;5067744;28;20244;-62
2021/03/24 02:39:09;;;;;;;47.87;25.23;;;6.40;99.90;;;;;;5087255;28;20250;-62
2021/03/24 02:41:37;;;;;;;46.50;25.07;;;6.40;99.90;;;;;;5089343;28;20239;-61
2021/03/24 02:44:04;;;;;;;43.27;24.33;;;6.50;99.90;;;;;;5085446;28;20242;-62
2021/03/24 02:46:31;;;;;;;47.97;24.83;;;6.60;99.90;;;;;;5086470;28;20231;-62
2021/03/24 02:49:05;;;;;;;42.40;24.00;;;6.30;99.90;;;;;;5086053;28;20192;-61
2021/03/24 02:51:32;;;;;;;46.03;24.10;;;6.20;99.90;;;;;;5067902;28;20193;-62
2021/03/24 02:54:06;;;;;;;47.83;24.70;;;6.00;99.90;;;;;;5082413;28;20192;-62
2021/03/24 02:56:32;;;;;;;44.10;24.40;;;6.00;99.90;;;;;;5071668;28;20205;-63
2021/03/24 02:58:59;;;;;;;42.43;22.40;;;6.00;99.90;;;;;;5085687;28;20271;-62
2021/03/24 03:01:31;;;;;;;42.17;23.73;;;6.00;99.90;;;;;;5066087;28;20268;-62
2021/03/24 03:04:04;;;;;;;48.60;24.80;;;6.00;99.90;;;;;;5087842;28;20203;-63
2021/03/24 03:06:30;;;;;;;44.80;24.77;;;6.10;99.90;;;;;;5088227;28;20582;-62
2021/03/24 03:09:05;;;;;;;48.33;24.93;;;6.10;99.90;;;;;;5082270;28;20191;-63
2021/03/24 03:11:52;;;;;;;46.37;25.27;;;6.00;99.90;;;;;;5069200;28;20220;-63
2021/03/24 03:14:30;;;;;;;44.87;24.50;;;6.00;99.90;;;;;;5086034;28;20256;-61
2021/03/24 03:17:02;;;;;;;44.83;24.10;;;6.20;99.90;;;;;;5085310;28;20198;-61
2021/03/24 03:19:39;;;;;;;44.27;24.70;;;6.20;99.90;;;;;;5086143;28;22504;-61
2021/03/24 03:22:15;;;;;;;51.10;26.07;;;6.20;99.90;;;;;;5082929;28;20227;-61
2021/03/24 03:24:48;;;;;;;44.77;24.33;;;6.30;99.90;;;;;;5087371;28;20191;-62
2021/03/24 03:27:18;;;;;;;43.80;23.90;;;6.20;99.90;;;;;;5086760;28;20562;-62
2021/03/24 03:29:45;;;;;;;45.00;24.57;;;6.00;99.90;;;;;;5086023;28;20328;-63
2021/03/24 03:32:18;;;;;;;44.53;25.07;;;5.90;99.90;;;;;;5055351;28;20214;-62
2021/03/24 03:34:52;;;;;;;44.50;23.87;;;5.80;99.90;;;;;;5085983;28;20202;-62
2021/03/24 03:37:19;;;;;;;47.33;25.83;;;5.80;99.90;;;;;;5085845;28;20559;-63
2021/03/24 03:39:47;;;;;;;47.67;25.73;;;5.90;99.90;;;;;;5085319;28;20285;-62
2021/03/24 03:42:14;;;;;;;45.97;24.20;;;5.80;99.90;;;;;;5083956;28;20316;-62
2021/03/24 03:44:42;;;;;;;47.60;24.27;;;5.70;99.90;;;;;;5051455;28;20268;-63
2021/03/24 03:47:12;;;;;;;49.60;26.57;;;5.60;99.90;;;;;;5067993;28;20318;-63
2021/03/24 03:49:40;;;;;;;47.47;26.23;;;5.60;99.90;;;;;;5087724;28;20593;-62
2021/03/24 03:52:39;;;;;;;48.57;25.27;;;5.70;99.90;;;;;;5084293;28;20245;-62
2021/03/24 03:55:40;;;;;;;51.97;25.10;;;5.70;99.90;;;;;;5068841;28;20761;-62
2021/03/24 03:58:12;;;;;;;47.97;25.23;;;5.70;99.90;;;;;;5083553;28;20256;-62
2021/03/24 04:00:58;;;;;;;48.37;26.00;;;5.60;99.90;;;;;;5086497;28;20203;-61
2021/03/24 04:03:34;;;;;;;46.87;23.73;;;5.80;99.90;;;;;;5067065;28;20293;-63
2021/03/24 04:06:07;;;;;;;48.57;24.03;;;5.50;99.90;;;;;;5083358;28;20627;-63
2021/03/24 04:08:35;;;;;;;40.63;23.47;;;5.50;99.90;;;;;;5082227;28;20281;-63
2021/03/24 04:11:06;;;;;;;48.03;24.67;;;5.50;99.90;;;;;;5086575;28;20251;-63
2021/03/24 04:13:37;;;;;;;42.40;23.43;;;5.50;99.90;;;;;;5085731;28;20630;-62
2021/03/24 04:16:04;;;;;;;46.47;25.03;;;5.50;99.90;;;;;;5085502;28;20239;-62
2021/03/24 04:18:37;;;;;;;47.03;24.53;;;5.60;99.90;;;;;;5085361;28;20206;-62
2021/03/24 04:21:05;;;;;;;46.57;24.97;;;5.70;99.90;;;;;;5083272;28;20199;-62
2021/03/24 04:23:37;;;;;;;47.33;26.43;;;5.60;99.90;;;;;;5082711;28;20342;-63
2021/03/24 04:26:14;;;;;;;48.40;26.00;;;5.60;99.90;;;;;;5070375;28;20283;-64
2021/03/24 04:28:46;;;;;;;50.13;25.17;;;5.60;99.90;;;;;;5086861;28;20202;-62
2021/03/24 04:31:16;;;;;;;47.47;24.37;;;5.60;99.90;;;;;;5085183;28;20191;-62
2021/03/24 04:33:43;;;;;;;46.93;24.47;;;5.60;99.90;;;;;;5085984;28;20206;-61
2021/03/24 04:36:32;;;;;;;48.90;25.10;;;5.50;99.90;;;;;;5082445;28;20234;-63
2021/03/24 04:39:05;;;;;;;46.33;24.40;;;5.50;99.90;;;;;;5076145;28;20248;-62
2021/03/24 04:41:37;;;;;;;52.47;25.17;;;5.40;99.90;;;;;;5084435;28;20630;-63
2021/03/24 04:44:33;;;;;;;45.57;24.10;;;5.60;99.90;;;;;;5070727;28;20195;-63
2021/03/24 04:47:14;;;;;;;45.27;24.03;;;5.50;99.90;;;;;;5082420;28;20289;-62
2021/03/24 04:49:58;;;;;;;42.70;23.47;;;5.40;99.90;;;;;;5081205;28;20284;-62
2021/03/24 04:52:28;;;;;;;47.37;24.27;;;5.70;99.90;;;;;;5083732;28;20608;-63
2021/03/24 04:54:59;;;;;;;48.23;23.70;;;5.70;99.90;;;;;;5086590;28;20198;-62
2021/03/24 04:57:27;;;;;;;44.73;24.07;;;5.80;99.90;;;;;;5084905;28;20199;-63
2021/03/24 05:00:01;;;;;;;47.80;24.63;;;5.80;99.90;;;;;;5085223;28;20227;-62
2021/03/24 05:02:35;;;;;;;45.13;24.63;;;5.90;99.90;;;;;;5083341;28;20245;-63
2021/03/24 05:05:25;;;;;;;46.90;25.23;;;5.90;99.90;;;;;;5086559;28;20282;-62
2021/03/24 05:08:02;;;;;;;49.27;24.53;;;5.90;99.90;;;;;;5086736;28;20195;-62
2021/03/24 05:10:31;;;;;;;49.67;25.03;;;5.60;99.90;;;;;;5079368;28;20297;-62
2021/03/24 05:13:16;;;;;;;44.83;24.37;;;5.50;99.90;;;;;;5084915;28;20307;-63
2021/03/24 05:15:52;;;;;;;51.40;25.47;;;5.50;99.90;;;;;;5084445;28;20214;-62
2021/03/24 05:18:19;;;;;;;49.07;24.67;;;5.40;99.90;;;;;;5086700;28;20663;-62
2021/03/24 05:21:01;;;;;;;50.90;24.27;;;5.30;99.90;;;;;;5087232;28;20586;-63
2021/03/24 05:23:29;;;;;;;50.57;23.53;;;5.40;99.90;;;;;;5082473;28;20622;-63
2021/03/24 05:26:26;;;;;;;45.73;24.67;;;5.50;99.90;;;;;;5085575;28;20198;-62
2021/03/24 05:28:55;;;;;;;44.90;24.07;;;5.60;99.90;;;;;;5084627;28;20267;-62
2021/03/24 05:31:25;;;;;;;48.97;25.80;;;5.70;99.90;;;;;;5083882;28;20244;-62
2021/03/24 05:34:00;;;;;;;52.07;25.63;;;5.90;99.90;;;;;;5083285;28;20577;-63
2021/03/24 05:36:41;;;;;;;48.53;24.87;;;5.80;99.90;;;;;;5082845;28;20237;-63
2021/03/24 05:39:25;;;;;;;48.27;23.00;;;5.80;99.90;;;;;;5083249;28;20554;-62
2021/03/24 05:42:14;;;;;;;53.80;25.53;;;5.70;99.90;;;;;;5083914;28;20321;-63
2021/03/24 05:45:02;;;;;;;43.37;24.03;;;5.60;99.90;;;;;;5083749;28;20290;-63
2021/03/24 05:47:37;;;;;;;43.63;23.47;;;5.90;99.90;;;;;;5082966;28;20578;-61
2021/03/24 05:50:04;;;;;;;47.50;24.07;;;5.90;99.90;;;;;;5084523;28;20199;-61
2021/03/24 05:53:06;;;;;;;51.93;26.73;;;5.60;99.90;;;;;;5083737;28;20243;-63
2021/03/24 05:56:06;;;;;;;48.13;24.30;;;5.50;99.90;;;;;;5069976;28;20632;-63
2021/03/24 05:58:38;;;;;;;48.03;24.37;;;5.50;99.90;;;;;;5085738;28;20243;-63
2021/03/24 06:01:45;;;;;;;47.57;23.90;;;5.70;99.90;;;;;;5064610;28;20197;-62
2021/03/24 06:04:39;;;;;;;46.27;24.07;;;5.60;99.90;;;;;;5084961;28;20597;-62
2021/03/24 06:07:48;;;;;;;48.90;24.33;;;5.60;99.90;;;;;;5081133;28;20259;-61
2021/03/24 06:10:43;;;;;;;44.10;24.37;;;5.50;99.90;;;;;;5087096;28;20240;-63
2021/03/24 06:13:21;;;;;;;43.70;24.30;;;5.40;99.90;;;;;;5087554;28;20271;-61
2021/03/24 06:15:56;;;;;;;49.47;24.83;;;5.50;99.90;;;;;;5087087;28;20272;-60
2021/03/24 06:19:00;;;;;;;50.47;25.27;;;5.50;99.90;;;;;;5086423;28;20204;-61
2021/03/24 06:21:48;;;;;;;44.27;23.67;;;5.60;99.90;;;;;;5082565;28;20209;-63
2021/03/24 06:24:30;;;;;;;53.50;25.37;;;5.30;99.90;;;;;;5088350;28;20286;-61
2021/03/24 06:27:17;;;;;;;53.63;26.03;;;5.30;99.90;;;;;;5068608;28;20201;-63
2021/03/24 06:29:54;;;;;;;53.20;24.30;;;5.50;99.90;;;;;;5089124;28;20195;-63
2021/03/24 06:32:24;;;;;;;49.83;24.60;;;5.70;99.90;;;;;;5087382;28;20197;-63
2021/03/24 06:35:19;;;;;;;48.03;25.30;;;5.70;99.90;;;;;;5086291;28;20205;-63
2021/03/24 06:38:24;;;;;;;45.60;24.47;;;5.70;99.90;;;;;;5062698;28;20233;-62
2021/03/24 06:41:15;;;;;;;44.27;23.43;;;5.90;99.90;;;;;;5002109;28;20266;-60
2021/03/24 06:44:21;;;;;;;49.40;24.73;;;6.10;99.90;;;;;;4980991;28;20322;-63
2021/03/24 06:47:00;;;;;;;50.63;25.33;;;6.00;99.90;;;;;;4968343;28;20267;-63
2021/03/24 06:49:42;;;;;;;48.70;25.37;;;5.90;99.90;;;;;;4985063;28;20203;-62
2021/03/24 06:52:42;;;;;;;48.87;25.33;;;6.00;99.90;;;;;;4986730;28;20271;-62
2021/03/24 06:55:53;;;;;;;45.87;23.87;;;6.10;99.90;;;;;;5005256;28;20211;-62
2021/03/24 06:58:22;;;;;;;46.00;23.63;;;6.20;99.90;;;;;;4985587;28;20290;-62
2021/03/24 07:01:26;;;;;;;48.73;24.33;;;6.30;99.90;;;;;;5003826;28;20299;-61
2021/03/24 07:03:52;;;;;;;46.87;23.80;;;6.40;99.90;;;;;;5001983;28;20654;-62
2021/03/24 07:06:42;;;;;;;49.40;24.07;;;6.40;99.90;;;;;;5002858;28;20721;-61
2021/03/24 07:09:45;;;;;;;51.73;23.53;;;6.70;99.90;;;;;;5007957;28;20199;-61
2021/03/24 07:12:22;;;;;;;48.97;24.80;;;6.50;99.90;;;;;;5050188;28;20211;-62
2021/03/24 07:15:07;;;;;;;44.27;24.27;;;6.60;99.90;;;;;;5068871;28;20205;-61
2021/03/24 07:17:46;;;;;;;49.30;23.03;;;6.70;99.90;;;;;;5060958;28;20235;-61
2021/03/24 07:20:15;;;;;;;55.03;24.73;;;6.70;99.90;;;;;;5062457;28;20207;-62
2021/03/24 07:22:56;;;;;;;48.20;23.67;;;6.70;99.90;;;;;;5066139;28;20238;-63
2021/03/24 07:25:38;;;;;;;44.77;23.77;;;6.60;99.90;;;;;;5064852;28;20194;-63
2021/03/24 07:28:40;;;;;;;50.10;24.03;;;6.70;99.90;;;;;;5067508;28;20255;-61
2021/03/24 07:31:15;;;;;;;56.60;25.27;;;6.90;99.90;;;;;;5035188;28;20293;-61
2021/03/24 07:33:49;;;;;;;48.87;24.27;;;7.00;99.90;;;;;;5058523;28;20658;-64
2021/03/24 07:36:53;;;;;;;53.73;26.33;;;7.10;99.90;;;;;;5059729;28;20649;-61
2021/03/24 07:39:44;;;;;;;47.37;24.83;;;7.10;99.90;;;;;;5062163;28;20239;-62
2021/03/24 07:42:31;;;;;;;56.53;25.30;;;7.40;99.90;;;;;;5060026;28;20233;-61
2021/03/24 07:45:32;;;;;;;52.73;24.93;;;7.50;99.90;;;;;;5068024;28;20223;-60
2021/03/24 07:48:04;;;;;;;42.60;23.73;;;7.60;99.90;;;;;;5066098;28;20248;-63
2021/03/24 07:50:38;;;;;;;53.80;25.37;;;7.60;99.90;;;;;;5059610;28;20215;-61
2021/03/24 07:53:19;;;;;;;47.87;25.70;;;7.80;99.90;;;;;;5066934;28;20250;-61
2021/03/24 07:55:58;;;;;;;44.90;24.07;;;8.10;99.90;;;;;;5062962;28;20597;-62
2021/03/24 07:59:06;;;;;;;47.13;25.83;;;8.30;99.90;;;;;;5061577;28;20260;-61
2021/03/24 08:01:58;;;;;;;51.70;25.63;;;8.40;99.90;;;;;;5027444;28;20284;-61
2021/03/24 08:04:45;;;;;;;47.93;25.03;;;8.40;99.90;;;;;;5059792;28;20287;-61
2021/03/24 08:07:34;;;;;;;48.23;24.80;;;8.50;99.90;;;;;;5059610;28;20223;-61
2021/03/24 08:10:19;;;;;;;47.83;24.03;;;8.70;99.90;;;;;;5062121;28;20317;-61
2021/03/24 08:12:54;;;;;;;49.67;27.33;;;8.80;99.90;;;;;;5062633;28;20272;-60
2021/03/24 08:15:37;;;;;;;55.27;24.23;;;8.90;99.90;;;;;;5065223;28;20199;-61
2021/03/24 08:18:33;;;;;;;46.50;25.90;;;9.10;99.90;;;;;;5066732;28;20197;-61
2021/03/24 08:21:23;;;;;;;50.03;24.80;;;9.30;99.90;;;;;;5062306;28;20648;-61
2021/03/24 08:23:55;;;;;;;45.67;25.20;;;9.50;99.90;;;;;;5066795;28;20221;-61
2021/03/24 08:26:33;;;;;;;48.77;25.77;;;10.10;99.90;;;;;;5068104;28;20199;-62
2021/03/24 08:29:03;;;;;;;47.10;23.80;;;10.00;99.90;;;;;;5064712;28;20275;-61
2021/03/24 08:32:05;;;;;;;46.57;24.83;;;10.50;99.90;;;;;;5065922;28;20705;-62
2021/03/24 08:34:53;;;;;;;46.27;24.40;;;10.50;99.90;;;;;;5047091;28;20241;-61
2021/03/24 08:37:32;;;;;;;49.93;25.83;;;10.90;99.90;;;;;;5065965;28;20207;-61
2021/03/24 08:40:04;;;;;;;50.30;24.83;;;11.00;99.90;;;;;;5068112;28;20214;-61
2021/03/24 08:42:46;;;;;;;47.37;24.23;;;10.90;99.90;;;;;;5066231;28;20739;-61
2021/03/24 08:45:21;;;;;;;47.50;24.77;;;10.80;99.90;;;;;;5082855;28;20572;-60
2021/03/24 08:47:53;;;;;;;46.90;24.53;;;11.30;99.90;;;;;;5085959;28;20340;-59
2021/03/24 08:50:29;;;;;;;45.63;24.17;;;11.20;99.90;;;;;;5081589;28;20205;-61
2021/03/24 08:53:04;;;;;;;45.27;23.67;;;11.40;99.90;;;;;;5086517;28;20646;-61
2021/03/24 08:55:49;;;;;;;46.13;23.90;;;11.60;99.90;;;;;;5084487;28;20205;-63
2021/03/24 08:58:32;;;;;;;45.20;24.10;;;11.50;99.90;;;;;;5082066;28;20729;-63
2021/03/24 09:01:30;;;;;;;42.97;22.63;;;11.90;99.90;;;;;;5067841;28;20238;-61
2021/03/24 09:04:53;;;;;;;44.37;23.40;;;12.00;99.90;;;;;;5085124;28;20218;-61
2021/03/24 09:07:33;;;;;;;48.23;24.97;;;12.40;99.90;;;;;;4973488;28;20258;-61
2021/03/24 09:10:05;;;;;;;47.83;24.67;;;12.10;99.90;;;;;;4981746;28;20604;-61
2021/03/24 09:12:44;;;;;;;44.83;23.23;;;12.20;99.90;;;;;;5053202;28;20205;-61
2021/03/24 09:15:55;;;;;;;45.27;22.43;;;12.40;99.90;;;;;;5085895;28;20352;-61
2021/03/24 09:18:42;;;;;;;45.07;23.20;;;12.40;99.90;;;;;;5079006;28;20570;-62
2021/03/24 09:21:14;;;;;;;48.23;22.87;;;12.90;99.90;;;;;;5084198;28;22751;-64
2021/03/24 09:24:23;;;;;;;44.10;23.13;;;13.50;99.90;;;;;;5084285;28;20275;-63
2021/03/24 09:27:17;;;;;;;43.23;23.43;;;13.20;99.90;;;;;;5080476;28;20288;-62
2021/03/24 09:30:15;;;;;;;43.53;22.83;;;12.60;99.90;;;;;;5083360;28;20213;-65
2021/03/24 09:33:12;;;;;;;42.93;22.13;;;12.50;99.90;;;;;;5080803;28;20230;-61
2021/03/24 09:36:07;;;;;;;43.10;22.00;;;12.70;99.90;;;;;;5083809;28;20286;-61
2021/03/24 09:38:36;;;;;;;43.20;22.37;;;13.20;98.80;;;;;;5060829;28;20204;-62
2021/03/24 09:41:17;;;;;;;41.67;21.87;;;14.10;99.90;;;;;;5059211;28;20257;-63
2021/03/24 09:43:49;;;;;;;39.90;21.87;;;14.20;97.60;;;;;;5075708;28;20234;-62
2021/03/24 09:46:27;;;;;;;40.17;20.60;;;14.00;95.50;;;;;;5081566;28;20202;-63
2021/03/24 09:48:58;;;;;;;39.63;22.30;;;13.70;94.60;;;;;;5080449;28;20205;-62
2021/03/24 09:51:35;;;;;;;41.10;21.27;;;13.90;95.30;;;;;;5087133;28;20525;-63
2021/03/24 09:54:17;;;;;;;36.20;19.33;;;13.90;94.60;;;;;;5090116;28;20640;-62
2021/03/24 09:56:54;;;;;;;37.13;20.93;;;13.70;95.60;;;;;;5073352;28;20261;-63
2021/03/24 10:00:09;;;;;;;37.50;20.33;;;13.60;98.10;;;;;;5085810;28;20206;-63
2021/03/24 10:02:50;;;;;;;39.53;19.70;;;14.10;93.90;;;;;;5071918;28;20218;-63
2021/03/24 10:05:27;;;;;;;38.33;20.43;;;13.60;94.00;;;;;;5085487;28;20198;-62
2021/03/24 10:08:06;;;;;;;37.00;19.23;;;13.50;95.80;;;;;;5086693;28;20188;-62
2021/03/24 10:10:35;;;;;;;35.13;17.83;;;14.00;94.10;;;;;;5085955;28;20191;-63
2021/03/24 10:13:07;;;;;;;36.10;17.60;;;13.90;92.80;;;;;;5088446;28;20197;-63
2021/03/24 10:15:57;;;;;;;31.93;16.10;;;13.80;93.00;;;;;;5073500;28;20577;-63
2021/03/24 10:18:37;;;;;;;32.30;17.07;;;13.80;92.40;;;;;;5058050;28;20309;-63
2021/03/24 10:21:18;;;;;;;29.77;16.37;;;14.00;92.90;;;;;;5086257;28;20262;-63
2021/03/24 10:24:00;;;;;;;33.10;16.63;;;13.90;90.90;;;;;;5081276;28;20218;-62
2021/03/24 10:26:32;;;;;;;36.40;17.80;;;13.70;91.90;;;;;;5085429;28;20649;-63
2021/03/24 10:29:10;;;;;;;34.77;16.80;;;13.90;90.90;;;;;;5087011;28;20190;-62
2021/03/24 10:31:40;;;;;;;28.10;15.97;;;14.10;91.80;;;;;;5085311;28;20198;-64
2021/03/24 10:34:17;;;;;;;34.83;17.83;;;14.30;90.10;;;;;;5090819;28;20594;-62
2021/03/24 10:37:13;;;;;;;30.03;16.27;;;14.20;89.80;;;;;;5085749;28;20296;-65
2021/03/24 10:39:57;;;;;;;32.80;16.47;;;14.60;90.50;;;;;;5087370;28;20248;-63
2021/03/24 10:42:29;;;;;;;34.70;16.83;;;14.90;88.90;;;;;;5086017;28;20658;-63
2021/03/24 10:45:22;;;;;;;30.77;16.87;;;14.70;88.30;;;;;;5087304;28;20240;-63
2021/03/24 10:48:05;;;;;;;34.57;16.83;;;14.20;87.20;;;;;;5087130;28;20290;-63
2021/03/24 10:50:55;;;;;;;37.83;17.27;;;14.60;88.80;;;;;;5089295;28;20228;-62
2021/03/24 10:53:29;;;;;;;29.07;14.93;;;14.90;85.00;;;;;;5090726;28;20207;-63
2021/03/24 10:56:27;;;;;;;34.23;17.37;;;14.80;86.10;;;;;;5083955;28;20197;-64
2021/03/24 10:59:20;;;;;;;29.83;16.47;;;15.00;87.40;;;;;;5088244;28;20199;-63
2021/03/24 11:02:28;;;;;;;32.07;14.57;;;15.00;87.80;;;;;;5071960;28;20289;-63
2021/03/24 11:05:02;;;;;;;30.97;15.80;;;15.40;89.60;;;;;;5087377;28;20194;-62
2021/03/24 11:07:36;;;;;;;30.53;15.87;;;15.70;78.00;;;;;;5084531;28;20581;-64
2021/03/24 11:10:11;;;;;;;33.43;15.63;;;15.00;81.70;;;;;;5086098;28;20280;-64
2021/03/24 11:12:40;;;;;;;31.87;15.17;;;15.00;80.40;;;;;;5085602;28;20302;-62
2021/03/24 11:15:27;;;;;;;31.00;15.93;;;15.30;84.10;;;;;;5084866;28;20573;-63
2021/03/24 11:18:02;;;;;;;31.73;16.70;;;15.80;79.80;;;;;;5081462;28;20334;-61
2021/03/24 11:20:54;;;;;;;31.37;16.47;;;15.10;78.00;;;;;;5080146;28;20200;-62
2021/03/24 11:23:32;;;;;;;31.97;15.43;;;15.10;80.30;;;;;;5080492;28;20296;-62
2021/03/24 11:26:30;;;;;;;25.87;14.37;;;15.30;77.90;;;;;;5081479;28;20251;-63
2021/03/24 11:29:01;;;;;;;29.27;14.90;;;15.60;79.10;;;;;;5080410;28;20199;-62
2021/03/24 11:31:51;;;;;;;25.37;14.87;;;15.80;71.80;;;;;;5083197;28;20223;-63
2021/03/24 11:34:32;;;;;;;25.47;14.80;;;16.00;73.20;;;;;;5065719;28;20714;-63
2021/03/24 11:37:06;;;;;;;25.13;13.07;;;15.90;75.10;;;;;;5087254;28;20195;-64
2021/03/24 11:39:42;;;;;;;24.20;14.00;;;16.40;69.70;;;;;;5086874;28;20233;-64
2021/03/24 11:42:12;;;;;;;29.27;15.20;;;16.40;68.80;;;;;;5083577;28;20222;-64
2021/03/24 11:44:39;;;;;;;26.10;15.57;;;16.20;69.20;;;;;;5068674;28;20272;-62
2021/03/24 11:47:45;;;;;;;30.50;13.93;;;16.40;73.80;;;;;;5051530;28;20328;-62
2021/03/24 11:50:26;;;;;;;27.60;13.67;;;16.60;65.90;;;;;;5080992;28;20528;-62
2021/03/24 11:53:13;;;;;;;25.07;14.00;;;15.80;67.80;;;;;;5084306;28;20200;-63
2021/03/24 11:56:01;;;;;;;27.43;13.90;;;15.70;69.20;;;;;;5067393;28;20226;-63
2021/03/24 11:58:43;;;;;;;26.90;13.80;;;16.00;68.70;;;;;;5080623;28;20243;-62
2021/03/24 12:01:10;;;;;;;26.93;13.37;;;15.90;63.30;;;;;;5082884;28;20191;-62
2021/03/24 12:04:06;;;;;;;28.07;13.57;;;15.70;68.60;;;;;;5087447;28;20693;-61
2021/03/24 12:06:41;;;;;;;24.23;13.40;;;16.40;66.10;;;;;;5084465;28;20678;-63
2021/03/24 12:09:19;;;;;;;29.23;14.43;;;16.40;64.50;;;;;;5083524;28;20197;-64
2021/03/24 12:11:46;;;;;;;24.53;13.93;;;16.60;65.00;;;;;;5083637;28;20225;-62
2021/03/24 12:14:24;;;;;;;23.87;13.23;;;17.30;64.00;;;;;;5082027;28;20702;-63
2021/03/24 12:16:54;;;;;;;24.07;12.97;;;18.20;57.70;;;;;;5080661;28;20232;-63
2021/03/24 12:19:37;;;;;;;23.10;13.00;;;17.50;55.60;;;;;;5074511;28;20203;-63
2021/03/24 12:22:18;;;;;;;23.57;12.67;;;17.20;54.50;;;;;;5082901;28;20239;-62
2021/03/24 12:24:46;;;;;;;28.10;13.23;;;17.30;57.80;;;;;;5084729;28;20235;-63
2021/03/24 12:27:28;;;;;;;22.67;12.83;;;17.80;54.50;;;;;;5083834;28;20192;-63
2021/03/24 12:30:18;;;;;;;23.37;12.33;;;18.90;50.90;;;;;;5083505;28;20201;-62
2021/03/24 12:32:45;;;;;;;23.40;13.67;;;18.30;50.50;;;;;;5084528;28;20220;-62
2021/03/24 12:35:27;;;;;;;22.90;13.17;;;17.80;54.30;;;;;;5086281;28;20755;-63
2021/03/24 12:38:06;;;;;;;27.03;13.03;;;17.70;48.90;;;;;;5068907;28;20200;-64
2021/03/24 12:40:33;;;;;;;23.00;12.60;;;17.20;50.80;;;;;;5082150;28;20219;-62
2021/03/24 12:43:30;;;;;;;22.23;12.90;;;16.80;52.40;;;;;;5081134;28;20316;-62
2021/03/24 12:46:21;;;;;;;25.73;13.30;;;17.30;55.20;;;;;;5080025;28;20189;-63
2021/03/24 12:48:57;;;;;;;24.83;12.67;;;16.70;52.70;;;;;;5080429;28;20224;-62
2021/03/24 12:51:39;;;;;;;29.27;13.63;;;16.70;51.40;;;;;;5059448;28;20195;-62
2021/03/24 12:54:11;;;;;;;23.63;13.43;;;16.50;53.40;;;;;;5084291;28;20224;-62
2021/03/24 12:57:15;;;;;;;26.70;14.30;;;16.90;51.70;;;;;;5083975;28;20230;-62
2021/03/24 13:00:15;;;;;;;25.60;11.97;;;16.40;53.90;;;;;;5082027;28;20202;-63
2021/03/24 13:02:59;;;;;;;32.43;14.43;;;16.80;50.60;;;;;;5079688;28;20223;-63
2021/03/24 13:05:43;;;;;;;29.03;13.77;;;16.70;54.60;;;;;;5086019;28;20673;-62
2021/03/24 13:08:52;;;;;;;21.37;12.93;;;17.00;53.10;;;;;;5084133;28;20197;-62
2021/03/24 13:11:22;;;;;;;27.63;14.07;;;17.40;51.30;;;;;;5066431;28;20629;-65
2021/03/24 13:14:39;;;;;;;26.43;13.47;;;17.80;47.60;;;;;;5067390;28;20215;-62
2021/03/24 13:17:42;;;;;;;26.33;14.23;;;16.80;50.90;;;;;;5085661;28;20207;-61
2021/03/24 13:20:35;;;;;;;26.73;12.57;;;17.00;52.80;;;;;;5057847;28;20647;-62
2021/03/24 13:23:28;;;;;;;20.60;12.13;;;18.40;48.70;;;;;;5085754;28;20257;-62
2021/03/24 13:26:00;;;;;;;24.60;13.60;;;17.90;48.90;;;;;;5089042;28;20272;-61
2021/03/24 13:28:46;;;;;;;19.47;11.70;;;16.90;48.40;;;;;;5097725;28;20201;-65
2021/03/24 13:31:13;;;;;;;23.03;11.37;;;17.50;49.60;;;;;;5087505;28;20703;-63
2021/03/24 13:33:50;;;;;;;21.27;11.43;;;17.40;49.30;;;;;;5089835;28;20662;-62
2021/03/24 13:36:26;;;;;;;22.60;11.87;;;17.80;49.30;;;;;;5088345;28;20208;-63
2021/03/24 13:39:06;;;;;;;21.90;11.53;;;17.40;48.90;;;;;;5097841;28;20209;-61
2021/03/24 13:41:36;;;;;;;20.97;12.03;;;17.40;47.20;;;;;;5072559;28;20281;-63